createdAt,value
2022-10-02T00:00:47.068Z,4.40
2022-10-02T00:03:18.083Z,4.63
2022-10-02T00:05:49.929Z,4.15
2022-10-02T00:08:24.023Z,4.70
2022-10-02T00:10:54.362Z,4.07
2022-10-02T00:13:25.275Z,4.07
2022-10-02T00:15:54.185Z,4.80
2022-10-02T00:18:24.496Z,4.68
2022-10-02T00:20:57.494Z,4.90
2022-10-02T00:23:28.685Z,3.95
2022-10-02T00:25:58.816Z,4.55
2022-10-02T00:28:29.574Z,5.35
2022-10-02T00:31:15.923Z,4.43
2022-10-02T00:33:48.021Z,4.60
2022-10-02T00:36:23.163Z,4.82
2022-10-02T00:38:56.816Z,4.82
2022-10-02T00:41:44.440Z,4.03
2022-10-02T00:44:23.285Z,4.43
2022-10-02T00:46:54.096Z,5.10
2022-10-02T00:49:36.268Z,5.32
2022-10-02T00:52:16.447Z,5.30
2022-10-02T00:54:56.353Z,3.88
2022-10-02T00:57:32.244Z,4.93
2022-10-02T01:00:05.456Z,4.90
2022-10-02T01:02:54.552Z,4.38
2022-10-02T01:05:27.414Z,5.00
2022-10-02T01:07:57.399Z,4.05
2022-10-02T01:10:26.630Z,4.93
2022-10-02T01:12:55.590Z,4.95
2022-10-02T01:15:25.504Z,4.75
2022-10-02T01:17:54.048Z,5.15
2022-10-02T01:20:25.272Z,5.10
2022-10-02T01:22:56.194Z,5.25
2022-10-02T01:25:26.554Z,5.10
2022-10-02T01:27:55.496Z,4.93
2022-10-02T01:30:24.255Z,5.28
2022-10-02T01:32:54.408Z,4.65
2022-10-02T01:35:24.453Z,5.20
2022-10-02T01:37:53.954Z,4.72
2022-10-02T01:40:27.472Z,4.88
2022-10-02T01:42:56.764Z,4.50
2022-10-02T01:45:30.145Z,3.90
2022-10-02T01:48:03.354Z,4.60
2022-10-02T01:50:34.640Z,4.78
2022-10-02T01:53:06.733Z,4.60
2022-10-02T01:55:41.538Z,5.45
2022-10-02T01:58:18.990Z,4.82
2022-10-02T02:00:51.976Z,5.07
2022-10-02T02:03:23.497Z,5.85
2022-10-02T02:05:54.482Z,4.65
2022-10-02T02:08:29.836Z,5.78
2022-10-02T02:11:05.459Z,4.65
2022-10-02T02:13:37.748Z,5.65
2022-10-02T02:16:09.102Z,5.03
2022-10-02T02:18:40.940Z,5.30
2022-10-02T02:21:12.304Z,5.38
2022-10-02T02:23:41.495Z,5.13
2022-10-02T02:26:12.623Z,5.22
2022-10-02T02:28:42.880Z,5.68
2022-10-02T02:31:13.552Z,5.50
2022-10-02T02:33:44.279Z,4.97
2022-10-02T02:36:14.752Z,5.30
2022-10-02T02:38:46.107Z,5.75
2022-10-02T02:41:18.758Z,5.30
2022-10-02T02:43:48.275Z,6.68
2022-10-02T02:46:20.709Z,4.93
2022-10-02T02:48:52.218Z,5.82
2022-10-02T02:51:22.932Z,5.40
2022-10-02T02:53:52.745Z,5.32
2022-10-02T02:56:23.010Z,5.00
2022-10-02T02:58:53.875Z,5.53
2022-10-02T03:01:22.478Z,5.05
2022-10-02T03:03:51.022Z,5.60
2022-10-02T03:06:28.386Z,5.55
2022-10-02T03:08:56.942Z,5.43
2022-10-02T03:11:30.712Z,6.80
2022-10-02T03:14:02.157Z,5.95
2022-10-02T03:16:36.358Z,5.15
2022-10-02T03:19:12.437Z,5.50
2022-10-02T03:21:45.500Z,5.18
2022-10-02T03:24:18.572Z,5.47
2022-10-02T03:26:52.068Z,6.05
2022-10-02T03:29:22.622Z,5.28
2022-10-02T03:31:51.714Z,5.25
2022-10-02T03:34:20.636Z,6.07
2022-10-02T03:36:49.430Z,6.25
2022-10-02T03:39:25.289Z,5.90
2022-10-02T03:41:55.971Z,6.05
2022-10-02T03:44:24.410Z,5.00
2022-10-02T03:46:52.876Z,5.57
2022-10-02T03:49:21.339Z,5.18
2022-10-02T03:51:49.703Z,5.60
2022-10-02T03:54:18.892Z,5.60
2022-10-02T03:56:51.537Z,5.05
2022-10-02T03:59:28.458Z,5.40
2022-10-02T04:01:57.289Z,5.07
2022-10-02T04:04:28.756Z,5.18
2022-10-02T04:07:01.916Z,5.13
2022-10-02T04:09:32.504Z,5.50
2022-10-02T04:12:04.868Z,4.72
2022-10-02T04:14:37.202Z,5.30
2022-10-02T04:17:07.908Z,4.22
2022-10-02T04:19:39.871Z,4.88
2022-10-02T04:22:10.092Z,4.82
2022-10-02T04:24:42.813Z,5.45
2022-10-02T04:27:15.360Z,4.28
2022-10-02T04:29:47.113Z,4.60
2022-10-02T04:32:17.379Z,3.80
2022-10-02T04:34:45.981Z,4.50
2022-10-02T04:37:29.369Z,4.15
2022-10-02T04:40:07.128Z,3.80
2022-10-02T04:42:42.052Z,4.55
2022-10-02T04:45:26.639Z,3.70
2022-10-02T04:48:07.345Z,3.13
2022-10-02T04:50:40.130Z,3.30
2022-10-02T04:53:15.807Z,4.63
2022-10-02T04:56:04.425Z,3.58
2022-10-02T04:58:41.078Z,3.47
2022-10-02T05:01:16.643Z,3.80
2022-10-02T05:03:54.587Z,3.97
2022-10-02T05:06:29.764Z,4.70
2022-10-02T05:09:11.456Z,3.25
2022-10-02T05:11:54.645Z,4.03
2022-10-02T05:14:32.422Z,4.05
2022-10-02T05:17:06.740Z,3.60
2022-10-02T05:19:42.105Z,3.85
2022-10-02T05:22:25.043Z,3.47
2022-10-02T05:25:01.937Z,3.90
2022-10-02T05:27:39.498Z,3.45
2022-10-02T05:30:09.807Z,3.53
2022-10-02T05:32:55.993Z,3.70
2022-10-02T05:35:31.873Z,3.60
2022-10-02T05:38:05.434Z,3.97
2022-10-02T05:40:35.867Z,3.72
2022-10-02T05:43:08.030Z,4.05
2022-10-02T05:45:38.437Z,3.65
2022-10-02T05:48:09.710Z,3.65
2022-10-02T05:50:39.848Z,3.95
2022-10-02T05:53:12.665Z,4.38
2022-10-02T05:55:43.970Z,4.65
2022-10-02T05:58:15.195Z,4.25
2022-10-02T06:00:48.516Z,3.97
2022-10-02T06:03:19.875Z,4.30
2022-10-02T06:05:55.421Z,4.72
2022-10-02T06:08:27.521Z,4.60
2022-10-02T06:10:57.254Z,4.78
2022-10-02T06:13:29.433Z,4.38
2022-10-02T06:16:02.159Z,4.57
2022-10-02T06:18:33.654Z,4.93
2022-10-02T06:21:05.059Z,5.35
2022-10-02T06:23:37.329Z,4.70
2022-10-02T06:26:08.868Z,4.45
2022-10-02T06:28:39.016Z,5.10
2022-10-02T06:31:12.386Z,4.78
2022-10-02T06:33:41.489Z,5.72
2022-10-02T06:36:34.148Z,6.78
2022-10-02T06:39:16.271Z,5.63
2022-10-02T06:41:47.402Z,5.22
2022-10-02T06:44:18.102Z,6.85
2022-10-02T06:46:52.365Z,6.97
2022-10-02T06:49:25.177Z,5.70
2022-10-02T06:51:59.486Z,6.47
2022-10-02T06:54:40.969Z,6.60
2022-10-02T06:57:16.593Z,6.22
2022-10-02T06:59:55.625Z,5.80
2022-10-02T07:02:32.689Z,5.82
2022-10-02T07:05:14.014Z,6.80
2022-10-02T07:07:49.862Z,6.40
2022-10-02T07:10:22.037Z,6.00
2022-10-02T07:13:07.852Z,5.75
2022-10-02T07:15:54.091Z,6.10
2022-10-02T07:18:27.699Z,6.22
2022-10-02T07:20:59.417Z,6.13
2022-10-02T07:23:38.855Z,7.53
2022-10-02T07:26:33.922Z,6.80
2022-10-02T07:29:09.233Z,6.70
2022-10-02T07:31:42.792Z,6.95
2022-10-02T07:34:21.182Z,6.72
2022-10-02T07:36:55.346Z,6.80
2022-10-02T07:39:38.435Z,5.88
2022-10-02T07:42:13.813Z,5.82
2022-10-02T07:45:00.737Z,5.40
2022-10-02T07:47:44.790Z,5.13
2022-10-02T07:50:14.360Z,5.45
2022-10-02T07:52:45.692Z,4.68
2022-10-02T07:55:19.983Z,5.80
2022-10-02T07:57:56.114Z,5.68
2022-10-02T08:00:25.286Z,5.80
2022-10-02T08:02:55.246Z,6.05
2022-10-02T08:05:25.663Z,5.60
2022-10-02T08:07:56.788Z,6.07
2022-10-02T08:10:28.744Z,6.40
2022-10-02T08:13:00.653Z,6.53
2022-10-02T08:15:29.890Z,6.75
2022-10-02T08:18:16.474Z,6.28
2022-10-02T08:20:50.348Z,6.40
2022-10-02T08:23:23.790Z,7.38
2022-10-02T08:25:56.212Z,7.00
2022-10-02T08:28:27.132Z,7.25
2022-10-02T08:30:55.605Z,7.18
2022-10-02T08:33:25.756Z,7.18
2022-10-02T08:36:01.346Z,7.03
2022-10-02T08:38:39.382Z,7.72
2022-10-02T08:41:22.636Z,7.78
2022-10-02T08:44:09.367Z,7.90
2022-10-02T08:46:46.273Z,7.82
2022-10-02T08:49:35.577Z,8.32
2022-10-02T08:52:22.666Z,7.55
2022-10-02T08:55:09.610Z,7.32
2022-10-02T08:58:05.083Z,7.80
2022-10-02T09:00:37.803Z,7.00
2022-10-02T09:03:28.494Z,7.28
2022-10-02T09:06:14.541Z,7.40
2022-10-02T09:09:01.302Z,7.35
2022-10-02T09:11:57.921Z,6.53
2022-10-02T09:14:43.652Z,6.22
2022-10-02T09:17:17.629Z,5.68
2022-10-02T09:19:57.164Z,5.03
2022-10-02T09:22:45.686Z,5.63
2022-10-02T09:25:25.392Z,5.18
2022-10-02T09:28:11.790Z,5.50
2022-10-02T09:31:03.804Z,5.25
2022-10-02T09:34:02.444Z,4.45
2022-10-02T09:37:02.260Z,4.53
2022-10-02T09:39:51.611Z,5.10
2022-10-02T09:42:37.767Z,4.60
2022-10-02T09:45:22.067Z,4.20
2022-10-02T09:48:05.286Z,3.65
2022-10-02T09:50:48.518Z,3.95
2022-10-02T09:53:38.132Z,3.72
2022-10-02T09:56:20.919Z,4.35
2022-10-02T09:59:01.549Z,4.32
2022-10-02T10:01:34.963Z,4.15
2022-10-02T10:04:33.896Z,4.03
2022-10-02T10:07:26.488Z,4.47
2022-10-02T10:10:13.583Z,4.35
2022-10-02T10:13:02.630Z,4.63
2022-10-02T10:15:45.891Z,4.40
2022-10-02T10:18:32.404Z,4.55
2022-10-02T10:21:15.236Z,4.70
2022-10-02T10:23:54.152Z,5.00
2022-10-02T10:26:39.699Z,4.25
2022-10-02T10:29:21.441Z,4.85
2022-10-02T10:32:13.237Z,5.03
2022-10-02T10:34:51.113Z,4.25
2022-10-02T10:37:48.917Z,4.70
2022-10-02T10:40:29.962Z,4.57
2022-10-02T10:43:16.849Z,3.97
2022-10-02T10:46:02.878Z,4.38
2022-10-02T10:48:36.302Z,5.15
2022-10-02T10:51:16.884Z,4.47
2022-10-02T10:54:01.016Z,3.67
2022-10-02T10:56:36.856Z,4.80
2022-10-02T10:59:19.816Z,4.00
2022-10-02T11:01:57.089Z,4.18
2022-10-02T11:04:50.240Z,4.90
2022-10-02T11:07:35.033Z,3.90
2022-10-02T11:10:11.604Z,3.63
2022-10-02T11:12:51.049Z,4.70
2022-10-02T11:15:33.372Z,3.72
2022-10-02T11:18:07.051Z,3.60
2022-10-02T11:20:54.293Z,3.92
2022-10-02T11:23:40.393Z,3.92
2022-10-02T11:26:15.949Z,3.92
2022-10-02T11:28:59.511Z,2.95
2022-10-02T11:31:47.182Z,4.00
2022-10-02T11:34:32.241Z,3.40
2022-10-02T11:37:09.666Z,3.25
2022-10-02T11:39:48.089Z,3.30
2022-10-02T11:42:34.676Z,3.25
2022-10-02T11:45:09.292Z,3.88
2022-10-02T11:48:00.451Z,3.72
2022-10-02T11:50:44.055Z,4.18
2022-10-02T11:53:24.310Z,4.20
2022-10-02T11:56:07.964Z,3.42
2022-10-02T11:58:45.173Z,3.85
2022-10-02T12:01:18.894Z,4.07
2022-10-02T12:03:52.952Z,4.20
2022-10-02T12:06:29.661Z,3.60
2022-10-02T12:09:03.764Z,2.90
2022-10-02T12:11:39.699Z,3.78
2022-10-02T12:14:13.043Z,4.97
2022-10-02T12:16:48.790Z,5.57
2022-10-02T12:19:27.958Z,4.90
2022-10-02T12:22:15.753Z,5.45
2022-10-02T12:25:03.921Z,4.07
2022-10-02T12:27:44.920Z,5.40
2022-10-02T12:30:14.666Z,4.20
2022-10-02T12:32:58.126Z,3.40
2022-10-02T12:35:41.376Z,3.42
2022-10-02T12:38:16.553Z,3.95
2022-10-02T12:40:50.502Z,3.60
2022-10-02T12:43:29.788Z,3.53
2022-10-02T12:46:13.633Z,3.08
2022-10-02T12:48:47.098Z,3.38
2022-10-02T12:51:29.467Z,2.83
2022-10-02T12:54:15.455Z,3.13
2022-10-02T12:56:47.518Z,2.90
2022-10-02T12:59:21.279Z,3.15
2022-10-02T13:02:07.243Z,3.08
2022-10-02T13:04:57.483Z,3.15
2022-10-02T13:07:53.127Z,2.90
2022-10-02T13:10:24.326Z,3.38
2022-10-02T13:13:05.151Z,3.20
2022-10-02T13:15:39.480Z,2.95
2022-10-02T13:18:19.993Z,2.90
2022-10-02T13:20:55.469Z,3.08
2022-10-02T13:23:26.711Z,3.30
2022-10-02T13:26:00.882Z,3.28
2022-10-02T13:28:38.324Z,3.22
2022-10-02T13:31:11.822Z,3.28
2022-10-02T13:33:51.528Z,2.90
2022-10-02T13:36:21.637Z,2.90
2022-10-02T13:39:04.247Z,3.83
2022-10-02T13:41:39.737Z,3.20
2022-10-02T13:44:13.094Z,3.35
2022-10-02T13:46:54.191Z,3.65
2022-10-02T13:49:26.839Z,3.50
2022-10-02T13:51:58.754Z,3.80
2022-10-02T13:54:33.780Z,3.65
2022-10-02T13:57:06.420Z,3.30
2022-10-02T13:59:43.326Z,3.10
2022-10-02T14:02:20.978Z,3.22
2022-10-02T14:04:54.193Z,3.30
2022-10-02T14:07:30.352Z,3.78
2022-10-02T14:10:04.901Z,3.00
2022-10-02T14:12:41.947Z,3.35
2022-10-02T14:15:19.933Z,3.45
2022-10-02T14:17:57.419Z,4.10
2022-10-02T14:20:33.081Z,4.57
2022-10-02T14:23:08.369Z,5.40
2022-10-02T14:25:48.649Z,3.45
2022-10-02T14:28:31.194Z,3.20
2022-10-02T14:31:09.171Z,2.55
2022-10-02T14:33:50.028Z,2.88
2022-10-02T14:36:20.924Z,2.80
2022-10-02T14:38:56.031Z,2.88
2022-10-02T14:41:34.364Z,2.20
2022-10-02T14:44:17.843Z,2.35
2022-10-02T14:47:03.162Z,3.45
2022-10-02T14:49:45.468Z,3.30
2022-10-02T14:52:24.440Z,3.28
2022-10-02T14:54:59.677Z,3.50
2022-10-02T14:57:37.304Z,3.40
2022-10-02T15:00:13.796Z,3.65
2022-10-02T15:02:57.082Z,2.83
2022-10-02T15:05:43.741Z,3.33
2022-10-02T15:08:15.885Z,3.30
2022-10-02T15:10:46.566Z,3.25
2022-10-02T15:13:24.853Z,3.50
2022-10-02T15:16:15.532Z,4.38
2022-10-02T15:18:47.038Z,4.32
2022-10-02T15:21:26.797Z,4.28
2022-10-02T15:23:58.376Z,5.22
2022-10-02T15:26:41.592Z,3.80
2022-10-02T15:29:16.708Z,3.83
2022-10-02T15:32:01.243Z,3.85
2022-10-02T15:34:32.869Z,3.25
2022-10-02T15:37:14.356Z,3.30
2022-10-02T15:40:00.939Z,3.22
2022-10-02T15:42:46.899Z,2.67
2022-10-02T15:45:41.702Z,2.72
2022-10-02T15:48:19.580Z,3.00
2022-10-02T15:50:54.085Z,2.78
2022-10-02T15:53:33.958Z,2.65
2022-10-02T15:56:13.115Z,2.08
2022-10-02T15:58:56.099Z,2.42
2022-10-02T16:01:29.549Z,2.30
2022-10-02T16:04:01.936Z,2.40
2022-10-02T16:06:37.312Z,1.90
2022-10-02T16:09:15.468Z,2.63
2022-10-02T16:11:50.560Z,2.38
2022-10-02T16:14:25.118Z,2.47
2022-10-02T16:17:18.201Z,2.58
2022-10-02T16:19:58.832Z,2.22
2022-10-02T16:22:38.597Z,2.15
2022-10-02T16:25:23.556Z,2.05
2022-10-02T16:27:57.279Z,2.03
2022-10-02T16:30:26.354Z,2.38
2022-10-02T16:33:04.798Z,2.13
2022-10-02T16:35:53.491Z,2.20
2022-10-02T16:38:25.989Z,2.15
2022-10-02T16:40:58.003Z,3.20
2022-10-02T16:43:35.163Z,2.92
2022-10-02T16:46:06.928Z,2.33
2022-10-02T16:48:42.400Z,2.55
2022-10-02T16:51:15.470Z,2.30
2022-10-02T16:53:46.658Z,2.90
2022-10-02T16:56:19.247Z,2.70
2022-10-02T16:58:52.660Z,2.65
2022-10-02T17:01:26.622Z,2.70
2022-10-02T17:04:10.606Z,2.95
2022-10-02T17:06:41.508Z,2.28
2022-10-02T17:09:14.515Z,2.58
2022-10-02T17:11:51.354Z,3.17
2022-10-02T17:14:22.060Z,2.97
2022-10-02T17:16:56.487Z,2.92
2022-10-02T17:19:28.156Z,2.30
2022-10-02T17:21:59.191Z,2.65
2022-10-02T17:24:36.445Z,4.65
2022-10-02T17:27:19.703Z,3.08
2022-10-02T17:29:56.562Z,2.85
2022-10-02T17:32:39.567Z,3.13
2022-10-02T17:35:15.932Z,2.88
2022-10-02T17:38:08.496Z,2.72
2022-10-02T17:40:41.945Z,2.80
2022-10-02T17:43:15.840Z,3.28
2022-10-02T17:45:47.603Z,2.88
2022-10-02T17:48:21.424Z,2.67
2022-10-02T17:50:59.127Z,2.60
2022-10-02T17:53:53.873Z,2.80
2022-10-02T17:56:28.932Z,2.50
2022-10-02T17:59:17.585Z,2.47
2022-10-02T18:01:51.316Z,2.90
2022-10-02T18:04:23.701Z,3.70
2022-10-02T18:06:55.684Z,3.00
2022-10-02T18:09:30.457Z,2.70
2022-10-02T18:12:10.388Z,2.88
2022-10-02T18:14:52.668Z,2.80
2022-10-02T18:17:27.953Z,2.60
2022-10-02T18:20:01.451Z,2.63
2022-10-02T18:22:39.198Z,3.22
2022-10-02T18:25:20.439Z,2.83
2022-10-02T18:27:56.807Z,2.70
2022-10-02T18:30:29.155Z,4.00
2022-10-02T18:33:15.126Z,3.78
2022-10-02T18:35:52.790Z,4.28
2022-10-02T18:38:25.456Z,4.35
2022-10-02T18:41:04.610Z,2.80
2022-10-02T18:43:51.043Z,3.28
2022-10-02T18:46:23.331Z,2.90
2022-10-02T18:49:07.887Z,4.88
2022-10-02T18:52:00.996Z,3.95
2022-10-02T18:54:35.522Z,4.32
2022-10-02T18:57:07.843Z,4.03
2022-10-02T18:59:41.567Z,3.13
2022-10-02T19:02:17.430Z,3.05
2022-10-02T19:04:53.674Z,3.00
2022-10-02T19:07:24.648Z,2.65
2022-10-02T19:09:54.353Z,2.70
2022-10-02T19:12:25.380Z,3.10
2022-10-02T19:14:56.121Z,3.10
2022-10-02T19:17:26.003Z,2.70
2022-10-02T19:19:56.201Z,2.80
2022-10-02T19:22:27.446Z,3.13
2022-10-02T19:24:57.894Z,2.45
2022-10-02T19:27:29.973Z,3.08
2022-10-02T19:29:59.124Z,2.70
2022-10-02T19:32:30.126Z,3.30
2022-10-02T19:35:01.480Z,2.88
2022-10-02T19:37:32.592Z,3.05
2022-10-02T19:40:03.188Z,2.95
2022-10-02T19:42:34.434Z,2.97
2022-10-02T19:45:03.864Z,3.15
2022-10-02T19:47:33.624Z,3.83
2022-10-02T19:50:03.326Z,4.07
2022-10-02T19:52:39.876Z,3.83
2022-10-02T19:55:19.228Z,3.78
2022-10-02T19:57:49.099Z,3.50
2022-10-02T20:00:18.983Z,3.42
2022-10-02T20:02:49.052Z,4.00
2022-10-02T20:05:20.526Z,2.80
2022-10-02T20:07:51.995Z,3.28
2022-10-02T20:10:23.316Z,3.38
2022-10-02T20:12:55.367Z,4.15
2022-10-02T20:15:39.077Z,3.78
2022-10-02T20:18:08.190Z,2.88
2022-10-02T20:20:37.393Z,3.50
2022-10-02T20:23:08.625Z,3.55
2022-10-02T20:25:39.167Z,3.42
2022-10-02T20:28:13.873Z,3.45
2022-10-02T20:30:51.099Z,3.17
2022-10-02T20:33:24.519Z,3.17
2022-10-02T20:35:56.543Z,3.20
2022-10-02T20:38:28.634Z,3.53
2022-10-02T20:40:58.547Z,4.50
2022-10-02T20:43:32.710Z,4.00
2022-10-02T20:46:11.286Z,4.05
2022-10-02T20:49:07.874Z,4.50
2022-10-02T20:52:06.820Z,4.60
2022-10-02T20:54:44.371Z,4.82
2022-10-02T20:57:56.455Z,5.25
2022-10-02T21:00:22.917Z,5.22
2022-10-02T21:03:10.233Z,5.18
2022-10-02T21:05:56.538Z,4.72
2022-10-02T21:08:34.625Z,5.40
2022-10-02T21:11:30.606Z,5.47
2022-10-02T21:14:15.260Z,5.28
2022-10-02T21:17:02.297Z,5.05
2022-10-02T21:19:43.045Z,5.30
2022-10-02T21:22:32.412Z,4.55
2022-10-02T21:25:18.761Z,4.53
2022-10-02T21:28:15.503Z,4.50
2022-10-02T21:30:48.488Z,4.38
2022-10-02T21:33:22.088Z,4.35
2022-10-02T21:35:57.392Z,4.18
2022-10-02T21:38:32.321Z,4.60
2022-10-02T21:41:34.779Z,4.07
2022-10-02T21:44:27.476Z,3.97
2022-10-02T21:47:10.354Z,4.45
2022-10-02T21:49:48.382Z,4.68
2022-10-02T21:52:36.919Z,4.38
2022-10-02T21:55:30.033Z,4.30
2022-10-02T21:58:18.050Z,4.28
2022-10-02T22:01:03.351Z,4.28
2022-10-02T22:03:39.831Z,4.63
2022-10-02T22:06:26.733Z,4.93
2022-10-02T22:09:00.491Z,4.82
2022-10-02T22:11:32.488Z,5.18
2022-10-02T22:14:02.709Z,5.00
2022-10-02T22:16:36.720Z,5.57
2022-10-02T22:19:10.079Z,5.10
2022-10-02T22:21:49.758Z,4.65
2022-10-02T22:24:23.313Z,4.65
2022-10-02T22:27:00.213Z,4.82
2022-10-02T22:29:31.998Z,5.43
2022-10-02T22:32:29.543Z,4.85
2022-10-02T22:35:01.973Z,5.22
2022-10-02T22:37:42.614Z,5.10
2022-10-02T22:40:14.238Z,5.13
2022-10-02T22:42:44.320Z,5.15
2022-10-02T22:45:15.998Z,5.03
2022-10-02T22:47:48.928Z,4.43
2022-10-02T22:50:23.408Z,4.93
2022-10-02T22:52:54.769Z,4.18
2022-10-02T22:55:26.112Z,4.47
2022-10-02T22:57:59.250Z,4.10
2022-10-02T23:00:28.599Z,3.95
2022-10-02T23:02:59.768Z,4.30
2022-10-02T23:05:33.148Z,4.15
2022-10-02T23:08:04.687Z,4.78
2022-10-02T23:10:36.607Z,4.30
2022-10-02T23:13:07.381Z,3.47
2022-10-02T23:15:41.936Z,4.55
2022-10-02T23:18:19.442Z,4.18
2022-10-02T23:20:51.923Z,3.85
2022-10-02T23:23:23.187Z,4.07
2022-10-02T23:25:54.243Z,3.92
2022-10-02T23:28:25.319Z,4.22
2022-10-02T23:31:02.228Z,4.18
2022-10-02T23:33:36.754Z,4.15
2022-10-02T23:36:09.147Z,3.88
2022-10-02T23:38:39.512Z,3.92
2022-10-02T23:41:28.005Z,4.13
2022-10-02T23:44:04.630Z,4.70
2022-10-02T23:46:35.836Z,3.80
2022-10-02T23:49:04.656Z,4.10
2022-10-02T23:51:41.688Z,4.40
2022-10-02T23:54:28.442Z,3.78
2022-10-02T23:57:10.105Z,3.95
2022-10-02T23:59:51.345Z,4.47
